createdAt,value
2022-12-03T00:08:36.926Z,10.30
2022-12-03T00:18:36.589Z,10.80
2022-12-03T00:28:36.213Z,10.10
2022-12-03T00:38:35.706Z,9.10
2022-12-03T00:48:35.334Z,11.00
2022-12-03T00:58:29.745Z,10.50
2022-12-03T01:08:29.265Z,9.80
2022-12-03T01:18:28.894Z,10.90
2022-12-03T01:28:28.663Z,11.50
2022-12-03T01:38:28.154Z,10.90
2022-12-03T01:48:27.918Z,12.10
2022-12-03T01:58:27.429Z,10.90
2022-12-03T02:08:27.275Z,14.10
2022-12-03T02:18:21.957Z,12.00
2022-12-03T02:28:21.644Z,14.50
2022-12-03T02:38:20.957Z,13.80
2022-12-03T02:48:20.600Z,13.20
2022-12-03T02:58:20.367Z,13.80
2022-12-03T03:08:20.074Z,13.60
2022-12-03T03:18:19.808Z,15.30
2022-12-03T03:28:19.262Z,15.10
2022-12-03T03:38:18.765Z,15.50
2022-12-03T03:48:13.219Z,14.30
2022-12-03T03:58:13.008Z,16.90
2022-12-03T04:08:12.413Z,14.60
2022-12-03T04:18:12.120Z,11.50
2022-12-03T04:28:11.628Z,15.80
2022-12-03T04:38:11.374Z,13.20
2022-12-03T04:48:11.017Z,14.80
2022-12-03T04:58:10.827Z,14.50
2022-12-03T05:08:10.226Z,13.80
2022-12-03T05:18:04.683Z,14.60
2022-12-03T05:28:04.169Z,11.10
2022-12-03T05:38:03.799Z,11.30
2022-12-03T05:48:03.418Z,12.90
2022-12-03T05:58:03.037Z,13.40
2022-12-03T06:08:02.861Z,14.10
2022-12-03T06:18:02.294Z,12.50
2022-12-03T06:28:02.066Z,13.70
2022-12-03T06:38:01.696Z,13.60
2022-12-03T06:47:55.885Z,13.20
2022-12-03T06:57:55.835Z,14.70
2022-12-03T07:07:55.408Z,13.00
2022-12-03T07:17:54.782Z,13.90
2022-12-03T07:27:54.427Z,12.30
2022-12-03T07:37:54.290Z,14.10
2022-12-03T07:47:53.654Z,13.70
2022-12-03T07:57:53.435Z,14.50
2022-12-03T08:07:52.969Z,15.20
2022-12-03T08:17:47.472Z,14.40
2022-12-03T08:27:46.916Z,12.50
2022-12-03T08:37:47.012Z,15.80
2022-12-03T08:47:46.309Z,12.90
2022-12-03T08:57:45.800Z,15.70
2022-12-03T09:07:45.593Z,13.50
2022-12-03T09:17:45.190Z,11.20
2022-12-03T09:27:44.799Z,16.00
2022-12-03T09:37:44.439Z,14.90
2022-12-03T09:47:44.035Z,12.70
2022-12-03T09:57:38.695Z,13.60
2022-12-03T10:07:38.089Z,14.60
2022-12-03T10:17:37.758Z,13.70
2022-12-03T10:27:37.353Z,14.00
2022-12-03T10:37:36.829Z,16.10
2022-12-03T10:47:36.568Z,15.30
2022-12-03T10:57:36.419Z,16.20
2022-12-03T11:07:35.746Z,17.00
2022-12-03T11:17:35.465Z,16.50
2022-12-03T11:27:35.079Z,15.60
2022-12-03T11:37:34.729Z,18.70
2022-12-03T11:47:28.900Z,16.50
2022-12-03T11:57:28.401Z,19.20
2022-12-03T12:07:28.265Z,17.80
2022-12-03T12:17:28.173Z,16.90
2022-12-03T12:27:27.271Z,20.40
2022-12-03T12:37:27.052Z,22.40
2022-12-03T12:47:26.725Z,20.50
2022-12-03T12:57:26.246Z,19.40
2022-12-03T13:07:25.878Z,22.60
2022-12-03T13:17:25.423Z,20.90
2022-12-03T13:27:25.037Z,20.20
2022-12-03T13:37:24.629Z,20.40
2022-12-03T13:47:24.220Z,17.30
2022-12-03T13:57:18.327Z,17.90
2022-12-03T14:07:17.969Z,20.10
2022-12-03T14:17:17.844Z,23.10
2022-12-03T14:27:17.221Z,22.10
2022-12-03T14:37:17.007Z,18.50
2022-12-03T14:47:16.471Z,18.50
2022-12-03T14:57:16.105Z,18.50
2022-12-03T15:07:15.868Z,19.90
2022-12-03T15:17:15.709Z,18.90
2022-12-03T15:27:15.137Z,19.90
2022-12-03T15:37:14.757Z,18.10
2022-12-03T15:47:14.235Z,19.10
2022-12-03T15:57:08.684Z,17.10
2022-12-03T16:07:08.308Z,19.60
2022-12-03T16:17:08.106Z,18.80
2022-12-03T16:27:07.416Z,21.10
2022-12-03T16:37:07.059Z,18.80
2022-12-03T16:47:06.680Z,20.70
2022-12-03T16:57:06.462Z,18.50
2022-12-03T17:07:05.920Z,18.20
2022-12-03T17:17:05.684Z,18.00
2022-12-03T17:27:05.145Z,20.20
2022-12-03T17:37:05.083Z,19.40
2022-12-03T17:47:04.641Z,21.10
2022-12-03T17:57:04.166Z,19.70
2022-12-03T18:07:02.083Z,18.80
2022-12-03T18:16:57.828Z,20.20
2022-12-03T18:26:57.574Z,19.70
2022-12-03T18:36:57.223Z,21.70
2022-12-03T18:46:56.734Z,20.20
2022-12-03T18:56:56.622Z,21.40
2022-12-03T19:06:56.106Z,21.60
2022-12-03T19:16:55.751Z,21.70
2022-12-03T19:26:55.400Z,21.90
2022-12-03T19:36:55.228Z,22.00
2022-12-03T19:46:49.002Z,24.80
2022-12-03T19:56:48.771Z,24.50
2022-12-03T20:06:48.253Z,22.30
2022-12-03T20:16:48.120Z,22.50
2022-12-03T20:26:47.507Z,22.60
2022-12-03T20:36:47.281Z,21.50
2022-12-03T20:46:46.889Z,22.20
2022-12-03T20:56:46.547Z,20.10
2022-12-03T21:06:46.025Z,21.40
2022-12-03T21:17:07.017Z,21.80
2022-12-03T21:26:40.074Z,20.60
2022-12-03T21:36:39.863Z,22.90
2022-12-03T21:47:08.880Z,22.00
2022-12-03T21:56:38.941Z,21.70
2022-12-03T22:06:38.797Z,23.30
2022-12-03T22:16:38.279Z,20.40
2022-12-03T22:26:38.024Z,20.90
2022-12-03T22:36:37.494Z,20.80
2022-12-03T22:46:37.316Z,20.00
2022-12-03T22:56:36.874Z,17.80
2022-12-03T23:06:31.360Z,20.40
2022-12-03T23:16:30.881Z,19.60
2022-12-03T23:26:30.615Z,17.90
2022-12-03T23:36:30.205Z,19.00
2022-12-03T23:46:29.888Z,18.80
2022-12-03T23:56:29.477Z,18.60
